Time;durP1;ratioP1;P1;durP2;ratioP2;P2;SDS_P1;SDS_P2;PMS_P1;PMS_P2;Temp;Humidity;BMP_temperature;BMP_pressure;BME280_temperature;BME280_humidity;BME280_pressure;Samples;Min_cycle;Max_cycle;Signal;HPM_P1;HPM_P2
2021/05/03 00:01:59;;;;;;;7.32;3.28;;;333.60;1945.60;;;;;;5051726;28;20116;-76
2021/05/03 00:04:25;;;;;;;3.78;2.92;;;333.60;1945.60;;;;;;5052998;28;20032;-74
2021/05/03 00:06:51;;;;;;;3.60;2.95;;;333.60;1945.60;;;;;;5048520;28;20029;-74
2021/05/03 00:09:17;;;;;;;4.30;2.78;;;333.50;1945.60;;;;;;5051473;28;20016;-74
2021/05/03 00:11:42;;;;;;;4.72;3.08;;;333.50;1945.60;;;;;;5051231;28;20495;-74
2021/05/03 00:14:08;;;;;;;4.70;3.22;;;333.40;1945.60;;;;;;5066970;28;20435;-74
2021/05/03 00:16:34;;;;;;;3.55;2.53;;;333.40;1971.20;;;;;;5049715;28;20063;-74
2021/05/03 00:18:59;;;;;;;5.57;2.80;;;333.30;1971.20;;;;;;5051381;28;20044;-74
2021/05/03 00:21:25;;;;;;;4.18;2.85;;;333.40;1971.20;;;;;;5050874;28;20025;-74
2021/05/03 00:23:51;;;;;;;4.45;3.00;;;333.30;1971.20;;;;;;5051391;28;20040;-74
2021/05/03 00:26:17;;;;;;;3.63;2.88;;;333.30;1996.80;;;;;;5049677;28;20112;-74
2021/05/03 00:28:43;;;;;;;3.55;2.50;;;333.20;1996.80;;;;;;5051548;28;20029;-74
2021/05/03 00:31:09;;;;;;;4.20;3.22;;;333.20;1996.80;;;;;;5050643;28;20029;-75
2021/05/03 00:33:35;;;;;;;3.38;2.83;;;333.10;2022.40;;;;;;5049653;28;20029;-74
2021/05/03 00:36:01;;;;;;;3.45;2.45;;;333.00;2022.40;;;;;;5051240;28;20048;-75
2021/05/03 00:38:27;;;;;;;4.65;3.50;;;332.90;2048.00;;;;;;5049526;28;20476;-74
2021/05/03 00:40:53;;;;;;;4.70;3.22;;;332.90;2048.00;;;;;;5051454;28;20061;-74
2021/05/03 00:43:20;;;;;;;3.70;2.83;;;332.80;2048.00;;;;;;5049563;28;20056;-74
2021/05/03 00:45:50;;;;;;;3.58;2.78;;;332.80;2048.00;;;;;;5050024;28;20022;-74
2021/05/03 00:48:16;;;;;;;4.80;3.30;;;308.10;2022.40;;;;;;5050620;28;20697;-75
2021/05/03 00:50:43;;;;;;;4.63;2.83;;;308.10;2022.40;;;;;;5051299;28;20063;-74
2021/05/03 00:53:09;;;;;;;4.03;2.90;;;308.10;2022.40;;;;;;5050565;28;20052;-74
2021/05/03 00:55:35;;;;;;;5.45;2.78;;;308.00;2048.00;;;;;;5050627;28;20036;-74
2021/05/03 00:58:05;;;;;;;4.75;2.67;;;308.00;2022.40;;;;;;5049737;28;20029;-74
2021/05/03 01:00:31;;;;;;;4.10;3.13;;;307.90;2022.40;;;;;;5050247;28;20681;-74
2021/05/03 01:02:58;;;;;;;4.43;3.15;;;308.00;2022.40;;;;;;5053995;28;20407;-74
2021/05/03 01:05:27;;;;;;;4.05;3.22;;;308.00;2022.40;;;;;;5054552;28;20070;-74
2021/05/03 01:07:54;;;;;;;4.55;3.05;;;308.00;2022.40;;;;;;5054934;28;20025;-74
2021/05/03 01:10:19;;;;;;;5.57;2.95;;;308.00;2022.40;;;;;;5054385;28;20404;-74
2021/05/03 01:12:45;;;;;;;5.80;3.55;;;308.00;2022.40;;;;;;5054427;28;20063;-75
2021/05/03 01:15:12;;;;;;;4.60;3.53;;;307.90;2022.40;;;;;;5054099;28;20025;-74
2021/05/03 01:17:41;;;;;;;4.10;2.80;;;307.90;2022.40;;;;;;5054255;28;20025;-74
2021/05/03 01:20:15;;;;;;;4.43;3.00;;;308.00;2022.40;;;;;;5053542;28;20719;-74
2021/05/03 01:22:42;;;;;;;3.38;2.75;;;307.90;2048.00;;;;;;5053024;28;20079;-74
2021/05/03 01:25:10;;;;;;;5.57;3.10;;;307.90;2048.00;;;;;;5053924;28;20100;-74
2021/05/03 01:27:36;;;;;;;4.35;3.03;;;307.90;2048.00;;;;;;5052875;28;20075;-75
2021/05/03 01:30:07;;;;;;;4.35;3.30;;;307.80;2073.60;;;;;;5053017;28;20033;-74
2021/05/03 01:32:33;;;;;;;4.50;3.15;;;307.80;2073.60;;;;;;5053341;28;20083;-74
2021/05/03 01:34:58;;;;;;;4.03;3.40;;;307.80;2073.60;;;;;;5069370;28;20484;-74
2021/05/03 01:37:24;;;;;;;6.47;3.03;;;307.90;2073.60;;;;;;5054355;28;20032;-75
2021/05/03 01:39:51;;;;;;;4.00;2.92;;;307.90;2073.60;;;;;;5054032;28;20033;-74
2021/05/03 01:42:17;;;;;;;6.03;4.03;;;308.10;2048.00;;;;;;5054287;28;20035;-74
2021/05/03 01:44:43;;;;;;;4.50;3.00;;;308.10;2048.00;;;;;;5054532;28;20526;-74
2021/05/03 01:47:09;;;;;;;4.55;3.63;;;308.10;2048.00;;;;;;5054994;28;20379;-75
2021/05/03 01:49:36;;;;;;;4.80;3.15;;;308.10;2048.00;;;;;;5066570;28;20502;-74
2021/05/03 01:52:02;;;;;;;4.72;3.13;;;308.10;2073.60;;;;;;5048534;28;20039;-74
2021/05/03 01:54:28;;;;;;;4.28;3.03;;;308.10;2048.00;;;;;;5053198;28;20412;-74
2021/05/03 01:56:54;;;;;;;6.07;3.55;;;308.10;2048.00;;;;;;5054120;28;20021;-75
2021/05/03 01:59:19;;;;;;;5.47;3.45;;;332.80;2073.60;;;;;;5053056;28;20092;-75
2021/05/03 02:01:45;;;;;;;5.97;3.53;;;308.10;2048.00;;;;;;5052002;28;20029;-75
2021/05/03 02:04:11;;;;;;;6.60;3.85;;;308.10;2073.60;;;;;;5053847;28;20115;-75
2021/05/03 02:06:37;;;;;;;5.95;3.58;;;308.10;2073.60;;;;;;5052013;28;20029;-75
2021/05/03 02:09:11;;;;;;;5.03;3.53;;;308.10;2073.60;;;;;;5053545;28;20530;-75
2021/05/03 02:11:39;;;;;;;3.97;3.33;;;308.10;2073.60;;;;;;5068720;28;20127;-74
2021/05/03 02:14:05;;;;;;;5.72;3.67;;;308.10;2073.60;;;;;;5051705;28;20060;-74
2021/05/03 02:16:31;;;;;;;4.32;3.60;;;308.10;2073.60;;;;;;5051653;28;20036;-74
2021/05/03 02:18:58;;;;;;;5.00;3.67;;;332.90;2099.20;;;;;;5053688;28;20029;-74
2021/05/03 02:21:25;;;;;;;5.00;3.75;;;308.10;2073.60;;;;;;5052872;28;20065;-75
2021/05/03 02:23:51;;;;;;;4.97;3.55;;;308.10;2073.60;;;;;;5053206;28;20029;-74
2021/05/03 02:26:17;;;;;;;5.25;4.05;;;308.00;2099.20;;;;;;5052942;28;20025;-74
2021/05/03 02:28:43;;;;;;;4.88;3.50;;;308.00;2099.20;;;;;;5051530;28;20751;-74
2021/05/03 02:31:08;;;;;;;5.57;3.83;;;308.10;2099.20;;;;;;5053143;28;20029;-75
2021/05/03 02:33:34;;;;;;;4.95;3.90;;;308.10;2099.20;;;;;;5050116;28;20056;-74
2021/05/03 02:36:01;;;;;;;5.03;3.40;;;308.10;2099.20;;;;;;5053324;28;20415;-74
2021/05/03 02:38:29;;;;;;;4.95;3.85;;;308.10;2099.20;;;;;;5054942;28;20070;-75
2021/05/03 02:40:55;;;;;;;3.90;3.22;;;308.10;2099.20;;;;;;5060400;28;20048;-75
2021/05/03 02:43:21;;;;;;;3.80;2.95;;;308.10;2099.20;;;;;;5040873;28;20072;-75
2021/05/03 02:45:47;;;;;;;4.15;3.28;;;308.10;2099.20;;;;;;5035293;28;20017;-75
2021/05/03 02:48:13;;;;;;;5.18;3.83;;;308.10;2099.20;;;;;;5053334;28;20056;-74
2021/05/03 02:50:39;;;;;;;5.13;3.63;;;308.00;2099.20;;;;;;5050980;28;20475;-75
2021/05/03 02:53:04;;;;;;;4.93;3.83;;;308.10;2099.20;;;;;;5045367;28;20473;-75
2021/05/03 02:55:31;;;;;;;4.53;3.35;;;308.10;2099.20;;;;;;5047852;28;20072;-75
2021/05/03 02:57:57;;;;;;;5.32;3.50;;;308.00;2099.20;;;;;;5037223;28;20029;-74
2021/05/03 03:00:33;;;;;;;4.90;3.60;;;308.10;2099.20;;;;;;5052286;28;20023;-74
2021/05/03 03:03:00;;;;;;;5.20;4.18;;;308.10;2099.20;;;;;;5051453;28;20468;-74
2021/05/03 03:05:26;;;;;;;5.85;4.30;;;308.10;2099.20;;;;;;5053401;28;20033;-74
2021/05/03 03:07:52;;;;;;;5.80;4.10;;;308.00;2099.20;;;;;;5051836;28;20029;-74
2021/05/03 03:10:21;;;;;;;5.75;4.32;;;308.10;2099.20;;;;;;5052403;28;20037;-74
2021/05/03 03:12:48;;;;;;;4.95;3.92;;;308.10;2099.20;;;;;;5052050;28;20025;-74
2021/05/03 03:15:17;;;;;;;6.13;3.53;;;308.00;2099.20;;;;;;5051179;28;20172;-74
2021/05/03 03:17:49;;;;;;;5.95;4.07;;;308.00;2099.20;;;;;;5050746;28;20075;-74
2021/05/03 03:20:16;;;;;;;5.40;3.80;;;308.10;2099.20;;;;;;5052456;28;20025;-75
2021/05/03 03:22:42;;;;;;;5.13;3.80;;;308.10;2099.20;;;;;;5051969;28;20025;-74
2021/05/03 03:25:08;;;;;;;6.45;3.55;;;308.10;2099.20;;;;;;5050895;28;20530;-75
2021/05/03 03:27:36;;;;;;;4.90;3.70;;;308.10;2099.20;;;;;;5051984;28;20041;-74
2021/05/03 03:30:02;;;;;;;4.90;3.65;;;308.00;2099.20;;;;;;5051681;28;20055;-74
2021/05/03 03:32:28;;;;;;;5.55;4.03;;;308.10;2099.20;;;;;;5051992;28;20080;-74
2021/05/03 03:34:54;;;;;;;6.03;3.70;;;308.10;2073.60;;;;;;5050328;28;20048;-74
2021/05/03 03:37:20;;;;;;;6.07;4.00;;;308.10;2099.20;;;;;;5051379;28;20479;-75
2021/05/03 03:39:45;;;;;;;5.80;3.67;;;308.10;2073.60;;;;;;5050585;28;20116;-74
2021/05/03 03:42:11;;;;;;;5.28;4.15;;;308.10;2073.60;;;;;;5052976;28;20041;-75
2021/05/03 03:44:38;;;;;;;4.95;3.55;;;308.10;2073.60;;;;;;5056578;28;20025;-75
2021/05/03 03:47:04;;;;;;;5.22;4.20;;;332.80;2099.20;;;;;;5054486;28;20028;-75
2021/05/03 03:49:29;;;;;;;5.70;3.90;;;332.80;2099.20;;;;;;5058534;28;20154;-75
2021/05/03 03:51:56;;;;;;;4.80;3.80;;;332.80;2099.20;;;;;;5056474;28;20064;-74
2021/05/03 03:54:22;;;;;;;4.22;3.60;;;332.80;2099.20;;;;;;5055352;28;20039;-75
2021/05/03 03:56:48;;;;;;;4.90;3.55;;;332.80;2099.20;;;;;;5063884;28;20115;-75
2021/05/03 03:59:15;;;;;;;5.82;3.67;;;332.90;2099.20;;;;;;5058439;28;20523;-74
2021/05/03 04:01:41;;;;;;;5.65;4.10;;;332.80;2073.60;;;;;;5052380;28;20242;-75
2021/05/03 04:04:15;;;;;;;4.80;3.47;;;332.80;2099.20;;;;;;5050612;28;20487;-74
2021/05/03 04:07:17;;;;;;;5.68;3.83;;;332.80;2073.60;;;;;;5062276;28;20040;-74
2021/05/03 04:09:45;;;;;;;6.50;4.55;;;332.90;2073.60;;;;;;5051665;28;20044;-75
2021/05/03 04:24:06;;;;;;;6.10;4.38;;;333.00;2099.20;;;;;;5051745;28;20083;-74
2021/05/03 04:25:59;;;;;;;6.10;4.68;;;333.00;2073.60;;;;;;5032942;28;20066;-75
2021/05/03 04:28:24;;;;;;;4.63;3.65;;;333.10;2073.60;;;;;;5057912;28;20037;-74
2021/05/03 04:30:50;;;;;;;4.72;3.65;;;333.00;2073.60;;;;;;5051406;28;20039;-74
2021/05/03 04:33:16;;;;;;;5.47;4.10;;;333.10;2073.60;;;;;;5049541;28;20456;-75
2021/05/03 04:35:41;;;;;;;4.15;3.38;;;333.20;2073.60;;;;;;5051607;28;20039;-75
2021/05/03 04:38:07;;;;;;;5.40;3.85;;;333.20;2073.60;;;;;;5054096;28;20057;-75
2021/05/03 04:40:33;;;;;;;6.75;4.85;;;333.20;2048.00;;;;;;5054361;28;20025;-75
2021/05/03 04:42:58;;;;;;;6.57;5.03;;;333.20;2073.60;;;;;;5054486;28;20029;-75
2021/05/03 04:45:24;;;;;;;6.00;4.57;;;333.30;2048.00;;;;;;5055282;28;20037;-75
2021/05/03 04:47:50;;;;;;;5.88;4.50;;;333.30;2048.00;;;;;;5053394;28;20037;-75
2021/05/03 04:50:16;;;;;;;5.13;4.00;;;333.30;2048.00;;;;;;5053501;28;20036;-75
2021/05/03 04:52:42;;;;;;;5.43;4.45;;;333.50;2022.40;;;;;;5058182;28;20104;-75
2021/05/03 04:55:08;;;;;;;6.00;4.82;;;333.50;2022.40;;;;;;5054467;28;20117;-75
2021/05/03 04:57:34;;;;;;;6.80;4.80;;;333.50;2022.40;;;;;;5057901;28;20786;-75
2021/05/03 05:00:00;;;;;;;6.05;4.93;;;333.70;1996.80;;;;;;5055130;28;20035;-75
2021/05/03 05:02:26;;;;;;;5.38;4.25;;;358.40;1996.80;;;;;;5055070;28;20499;-75
2021/05/03 05:04:52;;;;;;;5.68;4.65;;;358.40;1971.20;;;;;;5054496;28;20031;-75
2021/05/03 05:07:20;;;;;;;5.72;4.70;;;333.70;1971.20;;;;;;5053822;28;20163;-75
2021/05/03 05:09:46;;;;;;;6.20;5.13;;;333.60;1996.80;;;;;;5054480;28;20021;-75
2021/05/03 05:12:11;;;;;;;6.97;4.93;;;333.70;1996.80;;;;;;5055107;28;20368;-75
2021/05/03 05:14:37;;;;;;;6.22;4.60;;;333.60;1996.80;;;;;;5053570;28;20083;-74
2021/05/03 05:17:03;;;;;;;6.80;5.18;;;333.50;2022.40;;;;;;5054339;28;20053;-75
2021/05/03 05:19:29;;;;;;;6.70;5.45;;;333.40;2022.40;;;;;;5053479;28;20048;-75
2021/05/03 05:21:55;;;;;;;6.15;4.80;;;333.50;2022.40;;;;;;5069525;28;20021;-75
2021/05/03 05:24:21;;;;;;;6.25;4.97;;;333.60;1996.80;;;;;;5054746;28;20036;-75
2021/05/03 05:26:47;;;;;;;6.53;5.07;;;333.70;1996.80;;;;;;5054035;28;20032;-75
2021/05/03 05:29:13;;;;;;;6.32;4.90;;;358.40;1971.20;;;;;;5054024;28;20033;-75
2021/05/03 05:31:38;;;;;;;6.78;5.38;;;358.40;1971.20;;;;;;5053772;28;20094;-75
2021/05/03 05:34:04;;;;;;;7.15;5.85;;;358.40;1971.20;;;;;;5054525;28;20033;-75
2021/05/03 05:36:30;;;;;;;6.90;5.55;;;358.40;1971.20;;;;;;5053559;28;20040;-75
2021/05/03 05:38:55;;;;;;;6.40;5.63;;;358.60;1945.60;;;;;;5054295;28;20032;-75
2021/05/03 05:41:21;;;;;;;8.00;5.63;;;358.60;1920.00;;;;;;5052179;28;20395;-74
2021/05/03 05:43:47;;;;;;;7.80;6.10;;;358.60;1945.60;;;;;;5053520;28;20706;-75
2021/05/03 05:46:18;;;;;;;8.98;6.18;;;358.80;1894.40;;;;;;5077441;28;20044;-75
2021/05/03 05:48:44;;;;;;;7.70;6.60;;;358.90;1894.40;;;;;;5051227;28;20124;-75
2021/05/03 05:51:09;;;;;;;8.02;6.20;;;359.00;1868.80;;;;;;5064931;28;20021;-75
2021/05/03 05:53:35;;;;;;;7.10;5.78;;;359.00;1894.40;;;;;;5055910;28;20032;-76
2021/05/03 05:56:01;;;;;;;8.27;5.50;;;359.10;1868.80;;;;;;5053515;28;20453;-75
2021/05/03 05:58:31;;;;;;;6.82;5.60;;;359.30;1843.20;;;;;;5054272;28;20104;-75
2021/05/03 06:00:57;;;;;;;6.75;5.55;;;384.00;1817.60;;;;;;5044210;28;20480;-74
2021/05/03 06:03:22;;;;;;;9.63;6.25;;;384.10;1817.60;;;;;;5052773;28;20032;-74
2021/05/03 06:05:48;;;;;;;7.80;6.88;;;384.20;1817.60;;;;;;5049080;28;20099;-74
2021/05/03 06:08:14;;;;;;;8.45;7.35;;;384.30;1817.60;;;;;;5055569;28;20040;-74
2021/05/03 06:10:39;;;;;;;7.43;5.63;;;384.30;1792.00;;;;;;5052742;28;20384;-74
2021/05/03 06:13:05;;;;;;;8.07;6.75;;;384.50;1792.00;;;;;;5053977;28;20032;-74
2021/05/03 06:15:31;;;;;;;8.55;6.82;;;384.60;1766.40;;;;;;5054431;28;20029;-76
2021/05/03 06:17:58;;;;;;;8.45;6.47;;;384.90;1766.40;;;;;;5052362;28;20114;-74
2021/05/03 06:20:23;;;;;;;9.80;7.15;;;409.60;1766.40;;;;;;5052595;28;20413;-74
2021/05/03 06:22:58;;;;;;;8.13;6.93;;;409.80;1766.40;;;;;;5070466;28;20046;-74
2021/05/03 06:25:24;;;;;;;7.60;6.88;;;409.80;1740.80;;;;;;5050181;28;20031;-74
2021/05/03 06:27:50;;;;;;;9.80;6.57;;;410.00;1689.60;;;;;;5056733;28;20017;-74
2021/05/03 06:30:16;;;;;;;7.95;6.72;;;410.00;1689.60;;;;;;5052995;28;20377;-74
2021/05/03 06:32:42;;;;;;;7.32;6.55;;;410.10;1664.00;;;;;;5051176;28;20057;-74
2021/05/03 06:35:08;;;;;;;8.85;6.70;;;410.10;1664.00;;;;;;5040010;28;20039;-74
2021/05/03 06:37:33;;;;;;;9.23;6.65;;;410.30;1638.40;;;;;;5050221;28;20031;-74
2021/05/03 06:39:59;;;;;;;8.18;6.55;;;410.30;1638.40;;;;;;5053177;28;20442;-73
2021/05/03 06:42:25;;;;;;;8.48;6.78;;;410.40;1638.40;;;;;;5051017;28;20033;-74
2021/05/03 06:44:50;;;;;;;9.88;6.85;;;435.20;1612.80;;;;;;5052718;28;20139;-73
2021/05/03 06:47:16;;;;;;;6.85;5.70;;;435.40;1587.20;;;;;;5066187;28;20045;-73
2021/05/03 06:49:42;;;;;;;8.05;6.90;;;435.60;1561.60;;;;;;5053823;28;20029;-74
2021/05/03 06:52:08;;;;;;;8.93;6.80;;;435.70;1587.20;;;;;;5053564;28;20025;-74
2021/05/03 06:54:34;;;;;;;7.28;5.72;;;435.80;1561.60;;;;;;5053460;28;20029;-74
2021/05/03 06:56:59;;;;;;;6.40;5.47;;;436.00;1510.40;;;;;;5052943;28;20033;-74
2021/05/03 06:59:25;;;;;;;8.23;5.68;;;460.80;1510.40;;;;;;5054153;28;20025;-74
2021/05/03 07:01:52;;;;;;;7.65;6.13;;;436.00;1484.80;;;;;;5056361;28;20162;-73
2021/05/03 07:04:18;;;;;;;8.60;6.30;;;436.10;1459.20;;;;;;5051814;28;20103;-74
2021/05/03 07:06:44;;;;;;;7.50;6.00;;;460.80;1484.80;;;;;;5051953;28;20112;-74
2021/05/03 07:09:10;;;;;;;7.75;5.90;;;460.80;1484.80;;;;;;5052961;28;20053;-74
2021/05/03 07:11:36;;;;;;;6.85;5.57;;;436.10;1433.60;;;;;;5058573;28;20028;-74
2021/05/03 07:14:04;;;;;;;8.10;5.65;;;460.80;1459.20;;;;;;5056969;28;20542;-74
2021/05/03 07:16:29;;;;;;;6.05;4.78;;;460.80;1408.00;;;;;;5051548;28;20036;-74
2021/05/03 07:18:55;;;;;;;5.38;4.55;;;436.10;1382.40;;;;;;5053694;28;20025;-74
2021/05/03 07:21:21;;;;;;;6.00;4.85;;;460.80;1382.40;;;;;;5054563;28;20033;-74
2021/05/03 07:23:50;;;;;;;5.85;5.03;;;461.00;1356.80;;;;;;5066975;28;20029;-74
2021/05/03 07:26:16;;;;;;;6.22;4.70;;;461.30;1356.80;;;;;;5052318;28;20013;-74
2021/05/03 07:28:41;;;;;;;4.93;3.78;;;461.30;1356.80;;;;;;5056149;28;20036;-74
2021/05/03 07:31:07;;;;;;;5.43;4.55;;;461.30;1305.60;;;;;;5060663;28;20783;-75
2021/05/03 07:33:33;;;;;;;5.38;4.25;;;461.30;1331.20;;;;;;5062947;28;20033;-75
2021/05/03 07:35:59;;;;;;;6.28;4.78;;;461.40;1305.60;;;;;;5058351;28;20025;-74
2021/05/03 07:38:26;;;;;;;7.95;4.40;;;461.20;1331.20;;;;;;5061441;28;20464;-74
2021/05/03 07:40:52;;;;;;;5.80;4.20;;;461.30;1331.20;;;;;;5050552;28;20017;-74
2021/05/03 07:43:20;;;;;;;4.85;3.97;;;461.30;1305.60;;;;;;5043984;28;20024;-74
2021/05/03 07:45:46;;;;;;;5.95;4.68;;;461.50;1254.40;;;;;;5051375;28;20110;-74
2021/05/03 07:48:12;;;;;;;5.60;3.83;;;461.40;1280.00;;;;;;5052332;28;20448;-73
2021/05/03 07:50:38;;;;;;;4.63;3.55;;;461.60;1203.20;;;;;;5034178;28;20037;-73
2021/05/03 07:53:04;;;;;;;6.00;4.15;;;486.40;1152.00;;;;;;5052174;28;20037;-73
2021/05/03 07:55:30;;;;;;;5.63;4.13;;;486.50;1152.00;;;;;;5052281;28;20537;-74
2021/05/03 07:57:58;;;;;;;5.57;3.55;;;486.50;1152.00;;;;;;5052236;28;20037;-74
2021/05/03 08:00:23;;;;;;;4.72;3.35;;;486.70;1152.00;;;;;;5053208;28;20013;-74
2021/05/03 08:02:49;;;;;;;3.90;2.80;;;486.70;1152.00;;;;;;5052349;28;20032;-74
2021/05/03 08:05:15;;;;;;;4.45;3.67;;;486.70;1126.40;;;;;;5054186;28;20401;-74
2021/05/03 08:07:41;;;;;;;4.15;2.72;;;486.70;1126.40;;;;;;5057047;28;20063;-74
2021/05/03 08:10:07;;;;;;;5.20;3.70;;;486.80;1100.80;;;;;;5053738;28;20041;-74
2021/05/03 08:12:33;;;;;;;5.22;3.47;;;487.00;1100.80;;;;;;5054799;28;20395;-73
2021/05/03 08:15:04;;;;;;;4.80;3.22;;;487.10;1049.60;;;;;;5052028;28;20109;-74
2021/05/03 08:17:30;;;;;;;3.88;2.47;;;487.20;972.80;;;;;;5074143;28;20060;-73
2021/05/03 08:19:56;;;;;;;4.32;3.10;;;487.30;947.20;;;;;;5061220;28;20098;-74
2021/05/03 08:22:21;;;;;;;5.78;3.45;;;487.30;947.20;;;;;;5051233;28;20056;-73
2021/05/03 08:24:47;;;;;;;6.28;3.75;;;512.10;896.00;;;;;;5051893;28;20040;-76
2021/05/03 08:27:13;;;;;;;6.38;3.15;;;512.30;921.60;;;;;;5064410;28;20028;-75
2021/05/03 08:29:39;;;;;;;4.40;3.28;;;512.40;844.80;;;;;;5061369;28;20115;-74
2021/05/03 08:32:05;;;;;;;4.88;3.67;;;512.50;896.00;;;;;;5044428;28;20442;-74
2021/05/03 08:34:31;;;;;;;4.53;3.40;;;512.30;921.60;;;;;;5049190;28;20029;-75
2021/05/03 08:36:57;;;;;;;4.88;3.28;;;512.60;921.60;;;;;;5051325;28;20135;-75
2021/05/03 08:39:25;;;;;;;4.43;3.50;;;512.60;921.60;;;;;;5052911;28;20723;-75
2021/05/03 08:41:51;;;;;;;5.07;3.80;;;512.80;921.60;;;;;;5053599;28;20051;-74
2021/05/03 08:44:17;;;;;;;4.85;3.40;;;537.60;921.60;;;;;;5053627;28;20017;-75
2021/05/03 08:46:45;;;;;;;5.50;4.20;;;537.70;896.00;;;;;;5053504;28;20033;-75
2021/05/03 08:49:25;;;;;;;4.97;3.47;;;537.70;896.00;;;;;;5053053;28;20426;-75
2021/05/03 08:52:11;;;;;;;5.68;4.20;;;537.90;921.60;;;;;;5050338;28;20035;-75
2021/05/03 08:54:40;;;;;;;4.63;3.70;;;538.10;921.60;;;;;;5052109;28;20025;-76
2021/05/03 08:57:08;;;;;;;5.53;4.25;;;563.30;947.20;;;;;;5051068;28;20025;-74
2021/05/03 08:59:36;;;;;;;4.72;3.85;;;538.50;947.20;;;;;;5067220;28;20075;-74
2021/05/03 09:02:06;;;;;;;5.43;4.10;;;538.40;921.60;;;;;;5067210;28;20033;-74
2021/05/03 09:04:33;;;;;;;6.80;4.05;;;563.20;972.80;;;;;;5052316;28;20514;-73
2021/05/03 09:07:04;;;;;;;5.28;3.40;;;588.80;921.60;;;;;;5041250;28;20073;-72
2021/05/03 09:09:35;;;;;;;4.57;3.90;;;563.70;921.60;;;;;;5051336;28;20025;-73
2021/05/03 09:12:11;;;;;;;5.00;4.15;;;563.80;921.60;;;;;;5050546;28;20025;-73
2021/05/03 09:14:46;;;;;;;5.97;4.55;;;564.00;921.60;;;;;;5051746;28;20063;-73
2021/05/03 09:17:27;;;;;;;6.55;3.90;;;588.80;896.00;;;;;;5067017;28;20037;-73
2021/05/03 09:19:54;;;;;;;5.35;4.53;;;563.20;947.20;;;;;;5051672;28;20071;-73
2021/05/03 09:22:42;;;;;;;5.90;4.50;;;538.40;921.60;;;;;;5051245;28;20020;-73
2021/05/03 09:25:25;;;;;;;5.18;4.40;;;563.40;921.60;;;;;;5053161;28;20013;-73
2021/05/03 09:28:09;;;;;;;6.57;4.55;;;563.20;921.60;;;;;;5053421;28;20071;-72
2021/05/03 09:30:49;;;;;;;5.50;3.60;;;537.90;947.20;;;;;;5053382;28;20152;-75
2021/05/03 09:33:21;;;;;;;6.05;4.20;;;538.00;947.20;;;;;;5061147;28;20140;-75
2021/05/03 09:36:02;;;;;;;5.78;3.95;;;538.00;972.80;;;;;;5055471;28;20056;-74
2021/05/03 09:38:47;;;;;;;4.90;3.90;;;563.50;921.60;;;;;;5051488;28;20388;-74
2021/05/03 09:41:20;;;;;;;4.90;3.42;;;588.80;870.40;;;;;;5057760;28;20551;-74
2021/05/03 09:44:02;;;;;;;5.07;3.50;;;589.20;844.80;;;;;;5047459;28;20707;-75
2021/05/03 09:46:32;;;;;;;4.97;3.65;;;589.40;844.80;;;;;;5069682;28;20484;-74
2021/05/03 09:49:12;;;;;;;6.22;3.78;;;563.70;896.00;;;;;;5071553;28;20033;-74
2021/05/03 09:51:46;;;;;;;4.50;3.92;;;563.80;870.40;;;;;;5055291;28;20070;-74
2021/05/03 09:54:12;;;;;;;4.75;3.85;;;564.00;896.00;;;;;;5055260;28;20112;-74
2021/05/03 09:56:55;;;;;;;5.47;4.05;;;563.60;896.00;;;;;;5058251;28;20108;-73
2021/05/03 09:59:48;;;;;;;3.75;3.25;;;563.80;896.00;;;;;;5052969;28;20476;-74
2021/05/03 10:02:29;;;;;;;5.28;3.38;;;588.80;896.00;;;;;;5050012;28;20033;-74
2021/05/03 10:07:39;;;;;;;4.50;3.63;;;588.90;844.80;;;;;;5054486;28;20424;-74
2021/05/03 10:10:30;;;;;;;7.28;3.95;;;588.90;793.60;;;;;;5052283;28;20381;-74
2021/05/03 10:12:57;;;;;;;4.03;3.33;;;588.80;819.20;;;;;;5052169;28;20025;-74
2021/05/03 10:15:23;;;;;;;5.80;3.38;;;589.40;793.60;;;;;;5055622;28;20013;-73
2021/05/03 10:17:50;;;;;;;6.43;3.65;;;589.50;768.00;;;;;;5055158;28;20124;-73
2021/05/03 10:20:20;;;;;;;6.57;4.22;;;589.20;793.60;;;;;;5054048;28;20017;-72
2021/05/03 10:22:52;;;;;;;4.47;3.53;;;589.10;793.60;;;;;;5052851;28;20021;-73
2021/05/03 10:25:18;;;;;;;4.00;2.67;;;589.70;768.00;;;;;;5053620;28;20028;-73
2021/05/03 10:27:50;;;;;;;4.03;3.03;;;589.60;768.00;;;;;;5053363;28;20102;-73
2021/05/03 10:30:19;;;;;;;3.25;2.63;;;614.50;742.40;;;;;;5053445;28;20025;-73
2021/05/03 10:33:06;;;;;;;3.50;2.45;;;614.40;768.00;;;;;;5053937;28;20530;-73
2021/05/03 10:35:40;;;;;;;3.22;2.33;;;588.90;793.60;;;;;;5052709;28;20155;-73
2021/05/03 10:38:08;;;;;;;4.20;2.90;;;563.30;870.40;;;;;;5068996;28;20021;-73
2021/05/03 10:40:34;;;;;;;3.40;2.58;;;564.10;819.20;;;;;;5054434;28;20143;-73
2021/05/03 10:43:03;;;;;;;3.65;2.83;;;589.10;793.60;;;;;;5062016;28;20068;-76
2021/05/03 10:45:45;;;;;;;5.50;2.45;;;614.40;793.60;;;;;;5052160;28;20017;-73
2021/05/03 10:48:33;;;;;;;4.07;2.88;;;614.40;793.60;;;;;;5053436;28;20016;-73
2021/05/03 10:51:01;;;;;;;7.15;3.38;;;615.10;742.40;;;;;;5052271;28;20476;-73
2021/05/03 10:53:35;;;;;;;5.45;3.65;;;588.80;793.60;;;;;;5053026;28;20391;-73
2021/05/03 10:56:06;;;;;;;4.70;3.38;;;588.80;793.60;;;;;;5052697;28;20021;-72
2021/05/03 10:58:52;;;;;;;4.47;2.80;;;589.20;768.00;;;;;;5051857;28;20060;-73
2021/05/03 11:01:17;;;;;;;4.37;2.93;;;589.40;768.00;;;;;;5053359;28;20036;-73
2021/05/03 11:03:56;;;;;;;3.88;2.75;;;614.90;716.80;;;;;;5054269;28;20250;-73
2021/05/03 11:06:41;;;;;;;4.97;3.60;;;640.00;716.80;;;;;;5051868;28;20489;-73
2021/05/03 11:09:32;;;;;;;11.20;3.20;;;640.10;742.40;;;;;;5034172;28;20442;-73
2021/05/03 11:11:58;;;;;;;5.53;3.38;;;640.40;716.80;;;;;;5045114;28;20704;-73
2021/05/03 11:14:27;;;;;;;5.25;2.95;;;640.20;691.20;;;;;;5048762;28;20021;-73
2021/05/03 11:16:54;;;;;;;4.45;3.00;;;640.40;716.80;;;;;;5063448;28;20037;-72
2021/05/03 11:19:39;;;;;;;3.40;2.75;;;640.00;691.20;;;;;;5052038;28;20024;-72
2021/05/03 11:22:08;;;;;;;3.87;3.10;;;640.20;716.80;;;;;;5045364;28;20055;-73
2021/05/03 11:24:45;;;;;;;3.78;3.10;;;640.60;716.80;;;;;;5051883;28;20268;-72
2021/05/03 11:27:18;;;;;;;3.55;2.60;;;640.40;691.20;;;;;;5052383;28;20017;-72
2021/05/03 11:30:08;;;;;;;3.50;2.55;;;640.20;716.80;;;;;;5052711;28;20059;-72
2021/05/03 11:32:37;;;;;;;4.40;3.55;;;640.10;716.80;;;;;;5049716;28;20086;-73
2021/05/03 11:35:29;;;;;;;6.97;3.13;;;640.40;691.20;;;;;;5051087;28;20040;-73
2021/05/03 11:41:09;;;;;;;27.00;9.57;;;640.40;691.20;;;;;;5051691;28;20029;-72
2021/05/03 11:46:11;;;;;;;16.17;6.63;;;640.40;691.20;;;;;;5051802;28;20534;-73
2021/05/03 11:48:37;;;;;;;11.30;5.07;;;615.10;716.80;;;;;;5050784;28;20411;-73
2021/05/03 11:51:05;;;;;;;16.50;12.45;;;589.70;742.40;;;;;;5050838;28;20029;-72
2021/05/03 11:53:40;;;;;;;10.68;5.32;;;614.50;742.40;;;;;;5064333;28;20033;-72
2021/05/03 11:56:18;;;;;;;7.57;4.35;;;589.40;716.80;;;;;;5051126;28;20079;-72
2021/05/03 11:58:49;;;;;;;5.00;4.05;;;614.60;691.20;;;;;;5051211;28;20028;-72
2021/05/03 12:01:20;;;;;;;3.95;3.25;;;615.00;716.80;;;;;;5049291;28;20056;-72
2021/05/03 12:03:51;;;;;;;7.03;3.03;;;614.40;742.40;;;;;;5040319;28;20033;-73
2021/05/03 12:06:42;;;;;;;5.22;3.35;;;614.60;742.40;;;;;;5047414;28;20025;-72
2021/05/03 12:09:13;;;;;;;4.00;2.60;;;589.10;716.80;;;;;;5051701;28;20033;-72
2021/05/03 12:12:00;;;;;;;4.95;3.58;;;588.90;716.80;;;;;;5051738;28;20016;-73
2021/05/03 12:14:45;;;;;;;4.72;2.92;;;588.80;716.80;;;;;;5050452;28;20091;-72
2021/05/03 12:17:21;;;;;;;5.68;2.95;;;615.00;716.80;;;;;;5051501;28;20056;-72
2021/05/03 12:19:48;;;;;;;4.30;2.50;;;640.00;691.20;;;;;;5048426;28;20075;-72
2021/05/03 12:22:14;;;;;;;6.15;2.78;;;615.20;691.20;;;;;;5049435;28;20388;-72
2021/05/03 12:24:44;;;;;;;3.95;2.55;;;640.10;665.60;;;;;;5051268;28;20021;-72
2021/05/03 12:27:11;;;;;;;3.33;2.28;;;640.70;665.60;;;;;;5049753;28;20482;-72
2021/05/03 12:29:41;;;;;;;3.88;2.03;;;640.90;614.40;;;;;;5049477;28;20044;-72
2021/05/03 12:32:16;;;;;;;3.70;2.50;;;665.70;640.00;;;;;;5042885;28;20056;-72
2021/05/03 12:34:46;;;;;;;5.70;2.78;;;640.80;640.00;;;;;;5051130;28;20478;-73
2021/05/03 12:37:18;;;;;;;3.15;2.30;;;640.70;640.00;;;;;;5048952;28;20144;-72
2021/05/03 12:40:14;;;;;;;3.42;2.38;;;640.50;665.60;;;;;;5048255;28;20032;-73
2021/05/03 12:42:43;;;;;;;4.00;2.33;;;665.60;691.20;;;;;;5008959;28;20547;-71
2021/05/03 12:56:55;;;;;;;3.80;2.67;;;640.60;665.60;;;;;;5147689;27;20382;-73
2021/05/03 12:59:29;;;;;;;3.95;2.60;;;666.10;665.60;;;;;;5119629;27;20062;-72
2021/05/03 13:02:38;;;;;;;4.57;2.28;;;665.60;665.60;;;;;;5136615;27;20027;-73